Kyoriki — JD3642 — position and weather

sailwx.info

Track history (hours):
 
Tides and Currents Weather Stations Pressure Air Temp Water Temp Dewpoint Dewpoint Depression Visibility Wind Speed Wind Dir Waves Ship Positions

Kyoriki

Last reported at 2017-Oct-14 05:55 UTC. Time now 2017-Oct-17 22:31 UTC.
Position N 34°51' E 139°39'.

Length 75 m; draft 4.2 m.

Type: Cargo ship. MMSI: 431005151.

Date/timePositionNaut miles runAvg speedWind from/ knotsBaromVisibWave heightAir tempDewpointWater temp
2017-Oct-14 05:55N 34°51' E 139°39'23510.0
2017-Oct-13 06:28N 33°59' E 135°01'612.8
2017-Oct-13 05:58N 34°06' E 134°60'612.4
2017-Oct-13 05:27N 34°12' E 134°59'1511.4
2017-Oct-13 04:09N 34°27' E 135°01'212.1
2017-Oct-13 04:00N 34°29' E 135°01'611.5
2017-Oct-13 03:28N 34°35' E 135°03'4 8.8
2017-Oct-13 02:57N 34°37' E 134°58'1 0.0
2017-Oct-12 04:37N 34°37' E 134°57'315.9
2017-Oct-12 04:26N 34°37' E 135°01'613.6
2017-Oct-12 03:59N 34°36' E 135°08'613.4
2017-Oct-12 03:30N 34°36' E 135°16'713.0
2017-Oct-12 03:00N 34°36' E 135°24'3 0.1
2017-Oct-10 23:56N 34°34' E 135°27'0 0.0
2017-Oct-10 22:57N 34°34' E 135°27'2 3.6
2017-Oct-10 22:29N 34°35' E 135°26'510.6
2017-Oct-10 21:59N 34°34' E 135°19'713.1
2017-Oct-10 21:29N 34°29' E 135°14'612.2
2017-Oct-10 20:58N 34°25' E 135°08'1012.0
2017-Oct-10 20:08N 34°18' E 134°60'210.5
2017-Oct-10 20:00N 34°16' E 134°59'511.0
2017-Oct-10 19:30N 34°11' E 135°00'612.7
2017-Oct-10 19:00N 34°05' E 135°01'22810.3
2017-Oct-09 20:48N 34°60' E 139°30'412.3
2017-Oct-09 20:30N 35°02' E 139°33'713.0
2017-Oct-09 20:00N 35°06' E 139°40'612.8
2017-Oct-09 19:30N 35°11' E 139°45'611.3
2017-Oct-09 19:00N 35°16' E 139°46'712.2
2017-Oct-09 18:28N 35°22' E 139°42'510.2
2017-Oct-09 18:00N 35°25' E 139°47'15 0.5
2017-Oct-08 10:05N 35°37' E 139°58'612.0
2017-Oct-08 09:37N 35°32' E 139°54'112.6
2017-Oct-08 09:30N 35°31' E 139°53'612.4
2017-Oct-08 09:00N 35°26' E 139°49'612.1
2017-Oct-08 08:30N 35°21' E 139°45'611.6
2017-Oct-08 08:00N 35°16' E 139°47'612.5
2017-Oct-08 07:30N 35°09' E 139°46'612.6
2017-Oct-08 07:00N 35°04' E 139°41'712.6
2017-Oct-08 06:29N 34°60' E 139°35'612.5
2017-Oct-08 06:00N 34°56' E 139°30'227 9.9
2017-Oct-07 07:08N 34°02' E 135°02'213.6
2017-Oct-07 07:00N 34°04' E 135°02'713.2
2017-Oct-07 06:30N 34°11' E 135°02'1312.4
2017-Oct-07 05:26N 34°23' E 135°10'0 0.6
2017-Oct-07 04:53N 34°23' E 135°10'0 0.0
2017-Oct-07 04:30N 34°23' E 135°10'0 0.0
2017-Oct-07 04:00N 34°23' E 135°10'0 0.0
2017-Oct-07 03:30N 34°23' E 135°10'0 0.0
2017-Oct-07 00:41N 34°23' E 135°10'0 0.0
2017-Oct-06 20:40N 34°23' E 135°10'0 0.0
2017-Oct-06 20:30N 34°23' E 135°10'0 0.0
2017-Oct-06 20:00N 34°23' E 135°10'0 0.1
2017-Oct-06 19:30N 34°23' E 135°10'0 0.0
2017-Oct-06 19:00N 34°23' E 135°10'0 0.0
2017-Oct-06 18:30N 34°23' E 135°10'0 0.0
2017-Oct-06 18:00N 34°23' E 135°10'0 0.0
2017-Oct-06 17:30N 34°23' E 135°10'0 0.0
2017-Oct-06 16:57N 34°23' E 135°10'0 0.0
2017-Oct-06 16:26N 34°23' E 135°10'0 0.0
2017-Oct-06 16:00N 34°23' E 135°10'0 0.0
2017-Oct-06 15:30N 34°23' E 135°10'0 0.0
2017-Oct-06 15:00N 34°23' E 135°10'0 0.0
2017-Oct-06 14:27N 34°23' E 135°10'0 0.0
2017-Oct-06 13:56N 34°23' E 135°10'0 0.0
2017-Oct-06 13:31N 34°23' E 135°10'0 0.0
2017-Oct-06 12:09N 34°23' E 135°10'0 0.0
2017-Oct-06 11:51N 34°23' E 135°10'0 0.0
2017-Oct-06 11:26N 34°23' E 135°10'0 0.0
2017-Oct-06 10:58N 34°23' E 135°10'0 0.0
2017-Oct-06 10:23N 34°23' E 135°10'0 0.0
2017-Oct-06 10:00N 34°23' E 135°10'0 0.0
2017-Oct-06 09:31N 34°23' E 135°10'0 0.0
2017-Oct-06 08:55N 34°23' E 135°10'0 0.0
2017-Oct-06 06:32N 34°23' E 135°10'0 0.0
2017-Oct-06 06:23N 34°23' E 135°10'0 0.0
2017-Oct-05 23:12N 34°23' E 135°10'0 0.1
2017-Oct-05 22:54N 34°23' E 135°10'0 0.1
2017-Oct-05 22:30N 34°23' E 135°10'0 0.1
2017-Oct-05 22:00N 34°23' E 135°10'0 0.0
2017-Oct-05 21:27N 34°23' E 135°10'0 0.0
2017-Oct-05 21:00N 34°23' E 135°10'0 0.0
2017-Oct-05 20:30N 34°23' E 135°10'0 0.1
2017-Oct-05 19:48N 34°23' E 135°10'0 0.0
2017-Oct-05 18:49N 34°23' E 135°10'0 0.0
2017-Oct-05 18:30N 34°23' E 135°10'0 0.4
2017-Oct-05 17:59N 34°23' E 135°10'612.5
2017-Oct-05 17:30N 34°28' E 135°08'712.9
2017-Oct-05 16:59N 34°34' E 135°04'  
Track history (hours):
 
Tides and Currents Weather Stations Pressure Air Temp Water Temp Dewpoint Dewpoint Depression Visibility Wind Speed Wind Dir Waves Ship Positions

Kyoriki

Last reported at 2017-Oct-14 05:55 UTC. Time now 2017-Oct-17 22:31 UTC.
Position N 34°51' E 139°39'.

Length 75 m; draft 4.2 m.

Type: Cargo ship. MMSI: 431005151.

Date/timePositionNaut miles runAvg speedWind from/ knotsBaromVisibWave heightAir tempDewpointWater temp
2017-Oct-14 05:55N 34°51' E 139°39'23510.0
2017-Oct-13 06:28N 33°59' E 135°01'612.8
2017-Oct-13 05:58N 34°06' E 134°60'612.4
2017-Oct-13 05:27N 34°12' E 134°59'1511.4
2017-Oct-13 04:09N 34°27' E 135°01'212.1
2017-Oct-13 04:00N 34°29' E 135°01'611.5
2017-Oct-13 03:28N 34°35' E 135°03'4 8.8
2017-Oct-13 02:57N 34°37' E 134°58'1 0.0
2017-Oct-12 04:37N 34°37' E 134°57'315.9
2017-Oct-12 04:26N 34°37' E 135°01'613.6
2017-Oct-12 03:59N 34°36' E 135°08'613.4
2017-Oct-12 03:30N 34°36' E 135°16'713.0
2017-Oct-12 03:00N 34°36' E 135°24'3 0.1
2017-Oct-10 23:56N 34°34' E 135°27'0 0.0
2017-Oct-10 22:57N 34°34' E 135°27'2 3.6
2017-Oct-10 22:29N 34°35' E 135°26'510.6
2017-Oct-10 21:59N 34°34' E 135°19'713.1
2017-Oct-10 21:29N 34°29' E 135°14'612.2
2017-Oct-10 20:58N 34°25' E 135°08'1012.0
2017-Oct-10 20:08N 34°18' E 134°60'210.5
2017-Oct-10 20:00N 34°16' E 134°59'511.0
2017-Oct-10 19:30N 34°11' E 135°00'612.7
2017-Oct-10 19:00N 34°05' E 135°01'22810.3
2017-Oct-09 20:48N 34°60' E 139°30'412.3
2017-Oct-09 20:30N 35°02' E 139°33'713.0
2017-Oct-09 20:00N 35°06' E 139°40'612.8
2017-Oct-09 19:30N 35°11' E 139°45'611.3
2017-Oct-09 19:00N 35°16' E 139°46'712.2
2017-Oct-09 18:28N 35°22' E 139°42'510.2
2017-Oct-09 18:00N 35°25' E 139°47'15 0.5
2017-Oct-08 10:05N 35°37' E 139°58'612.0
2017-Oct-08 09:37N 35°32' E 139°54'112.6
2017-Oct-08 09:30N 35°31' E 139°53'612.4
2017-Oct-08 09:00N 35°26' E 139°49'612.1
2017-Oct-08 08:30N 35°21' E 139°45'611.6
2017-Oct-08 08:00N 35°16' E 139°47'612.5
2017-Oct-08 07:30N 35°09' E 139°46'612.6
2017-Oct-08 07:00N 35°04' E 139°41'712.6
2017-Oct-08 06:29N 34°60' E 139°35'612.5
2017-Oct-08 06:00N 34°56' E 139°30'227 9.9
2017-Oct-07 07:08N 34°02' E 135°02'213.6
2017-Oct-07 07:00N 34°04' E 135°02'713.2
2017-Oct-07 06:30N 34°11' E 135°02'1312.4
2017-Oct-07 05:26N 34°23' E 135°10'0 0.6
2017-Oct-07 04:53N 34°23' E 135°10'0 0.0
2017-Oct-07 04:30N 34°23' E 135°10'0 0.0
2017-Oct-07 04:00N 34°23' E 135°10'0 0.0
2017-Oct-07 03:30N 34°23' E 135°10'0 0.0
2017-Oct-07 00:41N 34°23' E 135°10'0 0.0
2017-Oct-06 20:40N 34°23' E 135°10'0 0.0
2017-Oct-06 20:30N 34°23' E 135°10'0 0.0
2017-Oct-06 20:00N 34°23' E 135°10'0 0.1
2017-Oct-06 19:30N 34°23' E 135°10'0 0.0
2017-Oct-06 19:00N 34°23' E 135°10'0 0.0
2017-Oct-06 18:30N 34°23' E 135°10'0 0.0
2017-Oct-06 18:00N 34°23' E 135°10'0 0.0
2017-Oct-06 17:30N 34°23' E 135°10'0 0.0
2017-Oct-06 16:57N 34°23' E 135°10'0 0.0
2017-Oct-06 16:26N 34°23' E 135°10'0 0.0
2017-Oct-06 16:00N 34°23' E 135°10'0 0.0
2017-Oct-06 15:30N 34°23' E 135°10'0 0.0
2017-Oct-06 15:00N 34°23' E 135°10'0 0.0
2017-Oct-06 14:27N 34°23' E 135°10'0 0.0
2017-Oct-06 13:56N 34°23' E 135°10'0 0.0
2017-Oct-06 13:31N 34°23' E 135°10'0 0.0
2017-Oct-06 12:09N 34°23' E 135°10'0 0.0
2017-Oct-06 11:51N 34°23' E 135°10'0 0.0
2017-Oct-06 11:26N 34°23' E 135°10'0 0.0
2017-Oct-06 10:58N 34°23' E 135°10'0 0.0
2017-Oct-06 10:23N 34°23' E 135°10'0 0.0
2017-Oct-06 10:00N 34°23' E 135°10'0 0.0
2017-Oct-06 09:31N 34°23' E 135°10'0 0.0
2017-Oct-06 08:55N 34°23' E 135°10'0 0.0
2017-Oct-06 06:32N 34°23' E 135°10'0 0.0
2017-Oct-06 06:23N 34°23' E 135°10'0 0.0
2017-Oct-05 23:12N 34°23' E 135°10'0 0.1
2017-Oct-05 22:54N 34°23' E 135°10'0 0.1
2017-Oct-05 22:30N 34°23' E 135°10'0 0.1
2017-Oct-05 22:00N 34°23' E 135°10'0 0.0
2017-Oct-05 21:27N 34°23' E 135°10'0 0.0
2017-Oct-05 21:00N 34°23' E 135°10'0 0.0
2017-Oct-05 20:30N 34°23' E 135°10'0 0.1
2017-Oct-05 19:48N 34°23' E 135°10'0 0.0
2017-Oct-05 18:49N 34°23' E 135°10'0 0.0
2017-Oct-05 18:30N 34°23' E 135°10'0 0.4
2017-Oct-05 17:59N 34°23' E 135°10'612.5
2017-Oct-05 17:30N 34°28' E 135°08'712.9
2017-Oct-05 16:59N 34°34' E 135°04'  

Dump ship's entire track history